createdAt,value
2017-10-16T21:12:05.106Z,13.67
2017-10-16T21:14:34.044Z,14.33
2017-10-16T21:17:01.737Z,13.17
2017-10-16T21:19:30.752Z,13.63
2017-10-16T21:21:58.336Z,13.37
2017-10-16T21:24:26.709Z,14.00
2017-10-16T21:26:54.691Z,13.80
2017-10-16T21:29:22.428Z,14.40
2017-10-16T21:31:50.086Z,14.33
2017-10-16T21:34:17.743Z,12.80
2017-10-16T21:36:45.457Z,13.10
2017-10-16T21:39:13.096Z,13.90
2017-10-16T21:41:41.649Z,14.23
2017-10-16T21:44:10.179Z,14.60
2017-10-16T21:46:37.778Z,15.23
2017-10-16T21:49:06.049Z,14.37
2017-10-16T21:51:33.767Z,13.40
2017-10-16T21:54:01.762Z,11.83
2017-10-16T21:56:34.105Z,12.90
2017-10-16T21:59:02.836Z,12.67
2017-10-16T22:01:30.545Z,13.23
2017-10-16T22:03:58.139Z,12.97
2017-10-16T22:06:25.747Z,14.20
2017-10-16T22:08:53.467Z,13.23
2017-10-16T22:11:21.102Z,13.10
2017-10-16T22:13:49.054Z,13.07
2017-10-16T22:16:18.014Z,13.57
2017-10-16T22:18:46.368Z,12.23
2017-10-16T22:21:15.145Z,13.10
2017-10-16T22:23:44.676Z,14.03
2017-10-16T22:26:12.362Z,13.83
2017-10-16T22:28:40.169Z,12.83
2017-10-16T22:31:08.853Z,12.73
2017-10-16T22:33:36.438Z,12.70
2017-10-16T22:36:04.237Z,12.80
2017-10-16T22:38:35.051Z,12.40
2017-10-16T22:41:02.621Z,12.80
2017-10-16T22:43:31.654Z,12.70
2017-10-16T22:46:00.054Z,11.93
2017-10-16T22:48:35.722Z,13.17
2017-10-16T22:51:09.293Z,11.50
2017-10-16T22:53:37.189Z,13.37
2017-10-16T22:56:05.008Z,12.43
2017-10-16T22:58:32.726Z,11.93
2017-10-16T23:01:00.365Z,12.27
2017-10-16T23:03:27.942Z,12.43
2017-10-16T23:05:55.714Z,11.80
2017-10-16T23:08:23.391Z,12.50
2017-10-16T23:10:51.034Z,12.73
2017-10-16T23:13:18.678Z,11.80
2017-10-16T23:15:46.329Z,13.07
2017-10-16T23:18:14.115Z,12.30
2017-10-16T23:20:41.695Z,12.60
2017-10-16T23:23:09.243Z,11.90
2017-10-16T23:25:36.839Z,11.97
2017-10-16T23:28:04.541Z,11.93
2017-10-16T23:30:32.092Z,11.30
2017-10-16T23:32:59.713Z,11.70
2017-10-16T23:35:27.359Z,11.87
2017-10-16T23:37:54.981Z,11.50
2017-10-16T23:40:23.522Z,12.60
2017-10-16T23:42:51.925Z,11.90
2017-10-16T23:45:19.746Z,12.43
2017-10-16T23:47:48.531Z,10.93
2017-10-16T23:50:16.088Z,11.10
2017-10-16T23:52:45.105Z,11.43
2017-10-16T23:55:13.984Z,11.50
2017-10-16T23:57:43.439Z,11.00
